sensor_id;sensor_type;location;lat;lon;timestamp;pressure;altitude;pressure_sealevel;temperature;humidity
50226;BME280;36113;50.742;6.432;2023-01-28T00:01:52;144981.63;;;-0.13;100.00
50226;BME280;36113;50.742;6.432;2023-01-28T00:04:17;145010.19;;;-0.02;100.00
50226;BME280;36113;50.742;6.432;2023-01-28T00:06:42;145052.44;;;0.16;100.00
50226;BME280;36113;50.742;6.432;2023-01-28T00:09:08;145044.97;;;0.13;100.00
50226;BME280;36113;50.742;6.432;2023-01-28T00:11:33;145041.22;;;0.11;100.00
50226;BME280;36113;50.742;6.432;2023-01-28T00:13:59;144995.28;;;-0.08;100.00
50226;BME280;36113;50.742;6.432;2023-01-28T00:16:24;145046.19;;;0.13;100.00
50226;BME280;36113;50.742;6.432;2023-01-28T00:18:53;145016.38;;;0.01;100.00
50226;BME280;36113;50.742;6.432;2023-01-28T00:21:18;145035.03;;;0.09;100.00
50226;BME280;36113;50.742;6.432;2023-01-28T00:23:53;145044.97;;;0.13;100.00
50226;BME280;36113;50.742;6.432;2023-01-28T00:26:20;145037.50;;;0.10;100.00
50226;BME280;36113;50.742;6.432;2023-01-28T00:28:46;145005.19;;;-0.04;100.00
50226;BME280;36113;50.742;6.432;2023-01-28T00:31:23;145047.47;;;0.14;100.00
50226;BME280;36113;50.742;6.432;2023-01-28T00:33:50;145040.00;;;0.11;100.00
50226;BME280;36113;50.742;6.432;2023-01-28T00:36:16;145030.03;;;0.07;100.00
50226;BME280;36113;50.742;6.432;2023-01-28T00:38:42;145010.19;;;-0.02;100.00
50226;BME280;36113;50.742;6.432;2023-01-28T00:41:15;145035.03;;;0.09;100.00
50226;BME280;36113;50.742;6.432;2023-01-28T00:43:42;145040.00;;;0.11;100.00
50226;BME280;36113;50.742;6.432;2023-01-28T00:46:09;145041.22;;;0.11;100.00
50226;BME280;36113;50.742;6.432;2023-01-28T00:48:37;145046.19;;;0.13;100.00
50226;BME280;36113;50.742;6.432;2023-01-28T00:51:03;145052.44;;;0.16;100.00
50226;BME280;36113;50.742;6.432;2023-01-28T00:53:29;145053.66;;;0.16;100.00
50226;BME280;36113;50.742;6.432;2023-01-28T00:55:55;145063.56;;;0.21;100.00
50226;BME280;36113;50.742;6.432;2023-01-28T00:58:20;145077.28;;;0.26;100.00
50226;BME280;36113;50.742;6.432;2023-01-28T01:00:48;145072.31;;;0.24;100.00
50226;BME280;36113;50.742;6.432;2023-01-28T01:03:14;145082.22;;;0.28;100.00
50226;BME280;36113;50.742;6.432;2023-01-28T01:05:39;145072.31;;;0.24;100.00
50226;BME280;36113;50.742;6.432;2023-01-28T01:08:04;145069.81;;;0.23;100.00
50226;BME280;36113;50.742;6.432;2023-01-28T01:10:30;145071.03;;;0.24;100.00
50226;BME280;36113;50.742;6.432;2023-01-28T01:12:55;145058.63;;;0.18;100.00
50226;BME280;36113;50.742;6.432;2023-01-28T01:15:22;145042.44;;;0.12;100.00
50226;BME280;36113;50.742;6.432;2023-01-28T01:17:48;145036.28;;;0.09;100.00
50226;BME280;36113;50.742;6.432;2023-01-28T01:20:17;145032.53;;;0.08;100.00
50226;BME280;36113;50.742;6.432;2023-01-28T01:22:43;144997.78;;;-0.07;100.00
50226;BME280;36113;50.742;6.432;2023-01-28T01:25:08;145030.03;;;0.07;100.00
50226;BME280;36113;50.742;6.432;2023-01-28T01:27:35;145042.44;;;0.12;100.00
50226;BME280;36113;50.742;6.432;2023-01-28T01:30:00;145041.22;;;0.11;100.00
50226;BME280;36113;50.742;6.432;2023-01-28T01:32:32;145015.16;;;0.01;100.00
50226;BME280;36113;50.742;6.432;2023-01-28T01:34:59;145026.31;;;0.05;100.00
50226;BME280;36113;50.742;6.432;2023-01-28T01:37:25;144990.31;;;-0.10;100.00
50226;BME280;36113;50.742;6.432;2023-01-28T01:39:50;145023.84;;;0.04;100.00
50226;BME280;36113;50.742;6.432;2023-01-28T01:42:15;145011.41;;;-0.01;100.00
50226;BME280;36113;50.742;6.432;2023-01-28T01:45:24;145005.19;;;-0.04;100.00
50226;BME280;36113;50.742;6.432;2023-01-28T01:47:46;144975.38;;;-0.16;100.00
50226;BME280;36113;50.742;6.432;2023-01-28T01:50:28;144965.47;;;-0.20;100.00
50226;BME280;36113;50.742;6.432;2023-01-28T01:52:59;145005.19;;;-0.04;100.00
50226;BME280;36113;50.742;6.432;2023-01-28T01:55:29;145012.66;;;-0.01;100.00
50226;BME280;36113;50.742;6.432;2023-01-28T01:57:57;145036.28;;;0.09;100.00
50226;BME280;36113;50.742;6.432;2023-01-28T02:00:25;144999.00;;;-0.06;100.00
50226;BME280;36113;50.742;6.432;2023-01-28T02:02:51;145008.91;;;-0.02;100.00
50226;BME280;36113;50.742;6.432;2023-01-28T02:05:20;144984.06;;;-0.12;100.00
50226;BME280;36113;50.742;6.432;2023-01-28T02:07:49;144997.78;;;-0.07;100.00
50226;BME280;36113;50.742;6.432;2023-01-28T02:10:15;144976.66;;;-0.15;100.00
50226;BME280;36113;50.742;6.432;2023-01-28T02:12:47;144934.41;;;-0.33;100.00
50226;BME280;36113;50.742;6.432;2023-01-28T02:15:19;144904.59;;;-0.45;100.00
50226;BME280;36113;50.742;6.432;2023-01-28T02:17:46;144936.91;;;-0.32;100.00
50226;BME280;36113;50.742;6.432;2023-01-28T02:20:19;144944.34;;;-0.29;100.00
50226;BME280;36113;50.742;6.432;2023-01-28T02:33:56;144924.47;;;-0.37;100.00
50226;BME280;36113;50.742;6.432;2023-01-28T02:36:39;144929.44;;;-0.35;100.00
50226;BME280;36113;50.742;6.432;2023-01-28T02:39:15;144918.25;;;-0.40;100.00
50226;BME280;36113;50.742;6.432;2023-01-28T02:41:48;144923.25;;;-0.38;100.00
50226;BME280;36113;50.742;6.432;2023-01-28T02:44:16;144921.97;;;-0.38;100.00
50226;BME280;36113;50.742;6.432;2023-01-28T02:46:41;144923.25;;;-0.38;100.00
50226;BME280;36113;50.742;6.432;2023-01-28T02:49:28;144914.56;;;-0.41;100.00
50226;BME280;36113;50.742;6.432;2023-01-28T02:54:52;144913.28;;;-0.42;100.00
50226;BME280;36113;50.742;6.432;2023-01-28T03:02:45;144874.81;;;-0.58;100.00
50226;BME280;36113;50.742;6.432;2023-01-28T03:05:19;144895.91;;;-0.49;100.00
50226;BME280;36113;50.742;6.432;2023-01-28T03:07:47;144898.41;;;-0.48;100.00
50226;BME280;36113;50.742;6.432;2023-01-28T03:10:17;144912.06;;;-0.42;100.00
50226;BME280;36113;50.742;6.432;2023-01-28T03:12:45;144889.72;;;-0.51;100.00
50226;BME280;36113;50.742;6.432;2023-01-28T03:15:34;144913.28;;;-0.42;100.00
50226;BME280;36113;50.742;6.432;2023-01-28T03:18:30;144920.75;;;-0.39;100.00
50226;BME280;36113;50.742;6.432;2023-01-28T03:21:24;144873.59;;;-0.58;100.00
50226;BME280;36113;50.742;6.432;2023-01-28T03:30:06;144889.72;;;-0.51;100.00
50226;BME280;36113;50.742;6.432;2023-01-28T03:32:52;144887.22;;;-0.52;100.00
50226;BME280;36113;50.742;6.432;2023-01-28T03:35:38;144890.97;;;-0.51;100.00
50226;BME280;36113;50.742;6.432;2023-01-28T03:38:22;144893.47;;;-0.50;100.00
50226;BME280;36113;50.742;6.432;2023-01-28T03:40:58;144868.63;;;-0.60;100.00
50226;BME280;36113;50.742;6.432;2023-01-28T03:43:28;144882.28;;;-0.54;100.00
50226;BME280;36113;50.742;6.432;2023-01-28T03:45:53;144861.16;;;-0.63;100.00
50226;BME280;36113;50.742;6.432;2023-01-28T03:48:21;144847.47;;;-0.69;100.00
50226;BME280;36113;50.742;6.432;2023-01-28T03:50:47;144833.84;;;-0.74;100.00
50226;BME280;36113;50.742;6.432;2023-01-28T03:53:13;144852.47;;;-0.67;100.00
50226;BME280;36113;50.742;6.432;2023-01-28T03:55:42;144845.03;;;-0.70;100.00
50226;BME280;36113;50.742;6.432;2023-01-28T03:58:08;144852.47;;;-0.67;100.00
50226;BME280;36113;50.742;6.432;2023-01-28T04:00:34;144848.75;;;-0.68;100.00
50226;BME280;36113;50.742;6.432;2023-01-28T04:03:09;144831.38;;;-0.76;100.00
50226;BME280;36113;50.742;6.432;2023-01-28T04:05:46;144826.38;;;-0.78;100.00
50226;BME280;36113;50.742;6.432;2023-01-28T04:08:21;144797.88;;;-0.89;100.00
50226;BME280;36113;50.742;6.432;2023-01-28T04:10:46;144807.78;;;-0.85;100.00
50226;BME280;36113;50.742;6.432;2023-01-28T04:13:11;144799.09;;;-0.89;100.00
50226;BME280;36113;50.742;6.432;2023-01-28T04:15:37;144832.59;;;-0.75;100.00
50226;BME280;36113;50.742;6.432;2023-01-28T04:18:02;144830.09;;;-0.76;100.00
50226;BME280;36113;50.742;6.432;2023-01-28T04:20:28;144836.34;;;-0.73;100.00
50226;BME280;36113;50.742;6.432;2023-01-28T04:22:53;144830.09;;;-0.76;100.00
50226;BME280;36113;50.742;6.432;2023-01-28T04:25:19;144835.06;;;-0.74;100.00
50226;BME280;36113;50.742;6.432;2023-01-28T04:27:44;144826.38;;;-0.78;100.00
50226;BME280;36113;50.742;6.432;2023-01-28T04:30:09;144836.34;;;-0.73;100.00
50226;BME280;36113;50.742;6.432;2023-01-28T04:32:35;144799.09;;;-0.89;100.00
50226;BME280;36113;50.742;6.432;2023-01-28T04:35:00;144838.78;;;-0.72;100.00
50226;BME280;36113;50.742;6.432;2023-01-28T04:37:25;144849.97;;;-0.68;100.00
50226;BME280;36113;50.742;6.432;2023-01-28T04:39:51;144794.13;;;-0.91;100.00
50226;BME280;36113;50.742;6.432;2023-01-28T04:42:16;144837.56;;;-0.73;100.00
50226;BME280;36113;50.742;6.432;2023-01-28T04:44:41;144827.66;;;-0.77;100.00
50226;BME280;36113;50.742;6.432;2023-01-28T04:47:07;144815.25;;;-0.82;100.00
50226;BME280;36113;50.742;6.432;2023-01-28T04:49:32;144843.78;;;-0.70;100.00
50226;BME280;36113;50.742;6.432;2023-01-28T04:51:57;144825.16;;;-0.78;100.00
50226;BME280;36113;50.742;6.432;2023-01-28T04:54:22;144821.41;;;-0.80;100.00
50226;BME280;36113;50.742;6.432;2023-01-28T04:56:48;144821.41;;;-0.80;100.00
50226;BME280;36113;50.742;6.432;2023-01-28T04:59:13;144825.16;;;-0.78;100.00
50226;BME280;36113;50.742;6.432;2023-01-28T05:01:38;144833.84;;;-0.74;100.00
50226;BME280;36113;50.742;6.432;2023-01-28T05:04:04;144831.38;;;-0.76;100.00
50226;BME280;36113;50.742;6.432;2023-01-28T05:06:31;144822.66;;;-0.79;100.00
50226;BME280;36113;50.742;6.432;2023-01-28T05:08:56;144770.53;;;-1.01;100.00
50226;BME280;36113;50.742;6.432;2023-01-28T05:11:24;144760.63;;;-1.05;100.00
50226;BME280;36113;50.742;6.432;2023-01-28T05:13:50;144795.38;;;-0.90;100.00
50226;BME280;36113;50.742;6.432;2023-01-28T05:16:16;144800.31;;;-0.88;100.00
50226;BME280;36113;50.742;6.432;2023-01-28T05:18:41;144805.28;;;-0.86;100.00
50226;BME280;36113;50.742;6.432;2023-01-28T05:21:07;144796.59;;;-0.90;100.00
50226;BME280;36113;50.742;6.432;2023-01-28T05:23:32;144754.41;;;-1.07;100.00
50226;BME280;36113;50.742;6.432;2023-01-28T05:25:57;144771.78;;;-1.00;100.00
50226;BME280;36113;50.742;6.432;2023-01-28T05:28:23;144779.22;;;-0.97;100.00
50226;BME280;36113;50.742;6.432;2023-01-28T05:30:48;144786.69;;;-0.94;100.00
50226;BME280;36113;50.742;6.432;2023-01-28T05:33:13;144789.13;;;-0.93;100.00
50226;BME280;36113;50.742;6.432;2023-01-28T05:35:38;144805.28;;;-0.86;100.00
50226;BME280;36113;50.742;6.432;2023-01-28T05:38:04;144764.31;;;-1.03;100.00
50226;BME280;36113;50.742;6.432;2023-01-28T05:40:30;144782.94;;;-0.96;100.00
50226;BME280;36113;50.742;6.432;2023-01-28T05:42:55;144781.72;;;-0.96;100.00
50226;BME280;36113;50.742;6.432;2023-01-28T05:45:21;144780.44;;;-0.97;100.00
50226;BME280;36113;50.742;6.432;2023-01-28T05:47:46;144778.00;;;-0.98;100.00
50226;BME280;36113;50.742;6.432;2023-01-28T05:50:12;144774.28;;;-0.99;100.00
50226;BME280;36113;50.742;6.432;2023-01-28T05:52:38;144742.00;;;-1.13;100.00
50226;BME280;36113;50.742;6.432;2023-01-28T05:55:04;144782.94;;;-0.96;100.00
50226;BME280;36113;50.742;6.432;2023-01-28T05:57:30;144780.44;;;-0.97;100.00
50226;BME280;36113;50.742;6.432;2023-01-28T05:59:56;144799.09;;;-0.89;100.00
50226;BME280;36113;50.742;6.432;2023-01-28T06:02:21;144799.09;;;-0.89;100.00
50226;BME280;36113;50.742;6.432;2023-01-28T06:04:46;144776.72;;;-0.98;100.00
50226;BME280;36113;50.742;6.432;2023-01-28T06:07:12;144768.03;;;-1.02;100.00
50226;BME280;36113;50.742;6.432;2023-01-28T06:09:38;144770.53;;;-1.01;100.00
50226;BME280;36113;50.742;6.432;2023-01-28T06:12:04;144782.94;;;-0.96;100.00
50226;BME280;36113;50.742;6.432;2023-01-28T06:14:29;144776.72;;;-0.98;100.00
50226;BME280;36113;50.742;6.432;2023-01-28T06:16:54;144769.31;;;-1.01;100.00
50226;BME280;36113;50.742;6.432;2023-01-28T06:19:20;144756.91;;;-1.06;100.00
50226;BME280;36113;50.742;6.432;2023-01-28T06:21:45;144737.03;;;-1.15;100.00
50226;BME280;36113;50.742;6.432;2023-01-28T06:24:10;144775.50;;;-0.99;100.00
50226;BME280;36113;50.742;6.432;2023-01-28T06:26:36;144782.94;;;-0.96;100.00
50226;BME280;36113;50.742;6.432;2023-01-28T06:29:01;144781.72;;;-0.96;100.00
50226;BME280;36113;50.742;6.432;2023-01-28T06:31:26;144789.13;;;-0.93;100.00
50226;BME280;36113;50.742;6.432;2023-01-28T06:33:52;144805.28;;;-0.86;100.00
50226;BME280;36113;50.742;6.432;2023-01-28T06:36:17;144779.22;;;-0.97;100.00
50226;BME280;36113;50.742;6.432;2023-01-28T06:38:43;144804.06;;;-0.87;100.00
50226;BME280;36113;50.742;6.432;2023-01-28T06:41:08;144787.91;;;-0.93;100.00
50226;BME280;36113;50.742;6.432;2023-01-28T06:43:33;144790.41;;;-0.92;100.00
50226;BME280;36113;50.742;6.432;2023-01-28T06:45:59;144786.69;;;-0.94;100.00
50226;BME280;36113;50.742;6.432;2023-01-28T06:48:25;144795.38;;;-0.90;100.00
50226;BME280;36113;50.742;6.432;2023-01-28T06:50:51;144795.38;;;-0.90;100.00
50226;BME280;36113;50.742;6.432;2023-01-28T06:53:17;144796.59;;;-0.90;100.00
50226;BME280;36113;50.742;6.432;2023-01-28T06:55:43;144780.44;;;-0.97;100.00
50226;BME280;36113;50.742;6.432;2023-01-28T06:58:08;144789.13;;;-0.93;100.00
50226;BME280;36113;50.742;6.432;2023-01-28T07:00:34;144787.91;;;-0.93;100.00
50226;BME280;36113;50.742;6.432;2023-01-28T07:02:59;144766.81;;;-1.02;100.00
50226;BME280;36113;50.742;6.432;2023-01-28T07:05:24;144718.41;;;-1.22;100.00
50226;BME280;36113;50.742;6.432;2023-01-28T07:07:50;144749.44;;;-1.09;100.00
50226;BME280;36113;50.742;6.432;2023-01-28T07:10:16;144727.06;;;-1.19;100.00
50226;BME280;36113;50.742;6.432;2023-01-28T07:12:41;144734.53;;;-1.16;100.00
50226;BME280;36113;50.742;6.432;2023-01-28T07:15:07;144733.31;;;-1.16;100.00
50226;BME280;36113;50.742;6.432;2023-01-28T07:17:35;144725.84;;;-1.19;100.00
50226;BME280;36113;50.742;6.432;2023-01-28T07:20:00;144701.03;;;-1.29;100.00
50226;BME280;36113;50.742;6.432;2023-01-28T07:22:25;144723.41;;;-1.20;100.00
50226;BME280;36113;50.742;6.432;2023-01-28T07:24:51;144723.41;;;-1.20;100.00
50226;BME280;36113;50.742;6.432;2023-01-28T07:27:16;144720.91;;;-1.21;100.00
50226;BME280;36113;50.742;6.432;2023-01-28T07:29:41;144715.94;;;-1.23;100.00
50226;BME280;36113;50.742;6.432;2023-01-28T07:32:07;144713.44;;;-1.24;100.00
50226;BME280;36113;50.742;6.432;2023-01-28T07:34:32;144708.50;;;-1.26;100.00
50226;BME280;36113;50.742;6.432;2023-01-28T07:36:58;144639.00;;;-1.55;100.00
50226;BME280;36113;50.742;6.432;2023-01-28T07:39:23;144739.50;;;-1.14;100.00
50226;BME280;36113;50.742;6.432;2023-01-28T07:41:48;144743.22;;;-1.12;100.00
50226;BME280;36113;50.742;6.432;2023-01-28T07:44:14;144753.19;;;-1.08;100.00
50226;BME280;36113;50.742;6.432;2023-01-28T07:46:39;144712.22;;;-1.25;100.00
50226;BME280;36113;50.742;6.432;2023-01-28T07:49:04;144742.00;;;-1.13;100.00
50226;BME280;36113;50.742;6.432;2023-01-28T07:51:30;144744.50;;;-1.11;100.00
50226;BME280;36113;50.742;6.432;2023-01-28T07:53:55;144719.66;;;-1.22;100.00
50226;BME280;36113;50.742;6.432;2023-01-28T07:56:21;144728.34;;;-1.18;100.00
50226;BME280;36113;50.742;6.432;2023-01-28T07:58:48;144714.66;;;-1.24;100.00
50226;BME280;36113;50.742;6.432;2023-01-28T08:01:14;144714.66;;;-1.24;100.00
50226;BME280;36113;50.742;6.432;2023-01-28T08:03:39;144666.31;;;-1.44;100.00
50226;BME280;36113;50.742;6.432;2023-01-28T08:06:04;144712.22;;;-1.25;100.00
50226;BME280;36113;50.742;6.432;2023-01-28T08:08:30;144712.22;;;-1.25;100.00
50226;BME280;36113;50.742;6.432;2023-01-28T08:10:55;144722.13;;;-1.21;100.00
50226;BME280;36113;50.742;6.432;2023-01-28T08:13:20;144707.25;;;-1.27;100.00
50226;BME280;36113;50.742;6.432;2023-01-28T08:15:46;144714.66;;;-1.24;100.00
50226;BME280;36113;50.742;6.432;2023-01-28T08:18:14;144713.44;;;-1.24;100.00
50226;BME280;36113;50.742;6.432;2023-01-28T08:20:40;144738.25;;;-1.14;100.00
50226;BME280;36113;50.742;6.432;2023-01-28T08:25:33;144782.94;;;-0.96;100.00
50226;BME280;36113;50.742;6.432;2023-01-28T08:27:59;144802.81;;;-0.87;100.00
50226;BME280;36113;50.742;6.432;2023-01-28T08:30:24;144763.09;;;-1.04;100.00
50226;BME280;36113;50.742;6.432;2023-01-28T08:32:50;144781.72;;;-0.96;100.00
50226;BME280;36113;50.742;6.432;2023-01-28T08:35:15;144745.72;;;-1.11;100.00
50226;BME280;36113;50.742;6.432;2023-01-28T08:37:40;144791.63;;;-0.92;100.00
50226;BME280;36113;50.742;6.432;2023-01-28T08:40:06;144753.19;;;-1.08;100.00
50226;BME280;36113;50.742;6.432;2023-01-28T08:42:32;144782.94;;;-0.96;100.00
50226;BME280;36113;50.742;6.432;2023-01-28T08:44:57;144790.41;;;-0.92;100.00
50226;BME280;36113;50.742;6.432;2023-01-28T08:47:22;144816.47;;;-0.82;100.00
50226;BME280;36113;50.742;6.432;2023-01-28T08:49:47;144817.69;;;-0.81;100.00
50226;BME280;36113;50.742;6.432;2023-01-28T08:52:13;144823.94;;;-0.79;100.00
50226;BME280;36113;50.742;6.432;2023-01-28T08:54:38;144845.03;;;-0.70;100.00
50226;BME280;36113;50.742;6.432;2023-01-28T08:57:03;144826.38;;;-0.78;100.00
50226;BME280;36113;50.742;6.432;2023-01-28T08:59:29;144800.31;;;-0.88;100.00
50226;BME280;36113;50.742;6.432;2023-01-28T09:01:54;144846.25;;;-0.69;100.00
50226;BME280;36113;50.742;6.432;2023-01-28T09:04:19;144867.34;;;-0.61;100.00
50226;BME280;36113;50.742;6.432;2023-01-28T09:06:44;144872.31;;;-0.59;100.00
50226;BME280;36113;50.742;6.432;2023-01-28T09:09:10;144759.34;;;-1.05;100.00
50226;BME280;36113;50.742;6.432;2023-01-28T09:11:35;144852.47;;;-0.67;100.00
50226;BME280;36113;50.742;6.432;2023-01-28T09:14:00;144781.72;;;-0.96;100.00
50226;BME280;36113;50.742;6.432;2023-01-28T09:16:26;144833.84;;;-0.74;100.00
50226;BME280;36113;50.742;6.432;2023-01-28T09:18:51;144852.47;;;-0.67;100.00
50226;BME280;36113;50.742;6.432;2023-01-28T09:21:18;144893.47;;;-0.50;100.00
50226;BME280;36113;50.742;6.432;2023-01-28T09:23:43;144884.72;;;-0.53;100.00
50226;BME280;36113;50.742;6.432;2023-01-28T09:26:09;144898.41;;;-0.48;100.00
50226;BME280;36113;50.742;6.432;2023-01-28T09:28:35;144889.72;;;-0.51;100.00
50226;BME280;36113;50.742;6.432;2023-01-28T09:33:28;144890.97;;;-0.51;100.00
50226;BME280;36113;50.742;6.432;2023-01-28T09:35:53;144871.09;;;-0.59;100.00
50226;BME280;36113;50.742;6.432;2023-01-28T09:38:18;144877.31;;;-0.57;100.00
50226;BME280;36113;50.742;6.432;2023-01-28T09:40:44;144859.91;;;-0.64;100.00
50226;BME280;36113;50.742;6.432;2023-01-28T09:43:29;144892.19;;;-0.50;100.00
50226;BME280;36113;50.742;6.432;2023-01-28T09:46:03;144889.72;;;-0.51;100.00
50226;BME280;36113;50.742;6.432;2023-01-28T09:48:36;144873.59;;;-0.58;100.00
50226;BME280;36113;50.742;6.432;2023-01-28T09:51:07;144828.88;;;-0.77;100.00
50226;BME280;36113;50.742;6.432;2023-01-28T09:53:38;144853.72;;;-0.66;100.00
50226;BME280;36113;50.742;6.432;2023-01-28T09:56:14;144872.31;;;-0.59;100.00
50226;BME280;36113;50.742;6.432;2023-01-28T09:58:41;144847.47;;;-0.69;100.00
50226;BME280;36113;50.742;6.432;2023-01-28T10:01:34;144902.16;;;-0.46;100.00
50226;BME280;36113;50.742;6.432;2023-01-28T10:09:20;144858.66;;;-0.64;100.00
50226;BME280;36113;50.742;6.432;2023-01-28T10:14:43;144816.47;;;-0.82;100.00
50226;BME280;36113;50.742;6.432;2023-01-28T10:17:15;144811.50;;;-0.84;100.00
50226;BME280;36113;50.742;6.432;2023-01-28T10:20:06;144838.78;;;-0.72;100.00
50226;BME280;36113;50.742;6.432;2023-01-28T10:22:51;144821.41;;;-0.80;100.00
50226;BME280;36113;50.742;6.432;2023-01-28T10:25:24;144816.47;;;-0.82;100.00
50226;BME280;36113;50.742;6.432;2023-01-28T10:27:50;144823.94;;;-0.79;100.00
50226;BME280;36113;50.742;6.432;2023-01-28T10:30:22;144789.13;;;-0.93;100.00
50226;BME280;36113;50.742;6.432;2023-01-28T10:32:52;144773.03;;;-1.00;100.00
50226;BME280;36113;50.742;6.432;2023-01-28T10:35:21;144775.50;;;-0.99;100.00
50226;BME280;36113;50.742;6.432;2023-01-28T10:37:46;144800.31;;;-0.88;100.00
50226;BME280;36113;50.742;6.432;2023-01-28T10:40:15;144791.63;;;-0.92;100.00
50226;BME280;36113;50.742;6.432;2023-01-28T10:42:40;144794.13;;;-0.91;100.00
50226;BME280;36113;50.742;6.432;2023-01-28T10:45:19;144826.38;;;-0.78;100.00
50226;BME280;36113;50.742;6.432;2023-01-28T10:48:31;144825.16;;;-0.78;100.00
50226;BME280;36113;50.742;6.432;2023-01-28T10:50:37;144790.41;;;-0.92;100.00
50226;BME280;36113;50.742;6.432;2023-01-28T10:53:04;144732.09;;;-1.17;100.00
50226;BME280;36113;50.742;6.432;2023-01-28T10:55:53;144715.94;;;-1.23;100.00
50226;BME280;36113;50.742;6.432;2023-01-28T10:58:22;144714.66;;;-1.24;100.00
50226;BME280;36113;50.742;6.432;2023-01-28T11:01:04;144719.66;;;-1.22;100.00
50226;BME280;36113;50.742;6.432;2023-01-28T11:03:30;144746.94;;;-1.10;100.00
50226;BME280;36113;50.742;6.432;2023-01-28T11:06:01;144729.59;;;-1.18;100.00
50226;BME280;36113;50.742;6.432;2023-01-28T11:08:28;144756.91;;;-1.06;100.00
50226;BME280;36113;50.742;6.432;2023-01-28T11:10:54;144709.72;;;-1.26;100.00
50226;BME280;36113;50.742;6.432;2023-01-28T11:13:28;144693.59;;;-1.33;100.00
50226;BME280;36113;50.742;6.432;2023-01-28T11:16:04;144660.09;;;-1.46;100.00
50226;BME280;36113;50.742;6.432;2023-01-28T11:18:34;144631.53;;;-1.58;100.00
50226;BME280;36113;50.742;6.432;2023-01-28T11:21:05;144655.13;;;-1.48;100.00
50226;BME280;36113;50.742;6.432;2023-01-28T11:23:39;144675.00;;;-1.40;100.00
50226;BME280;36113;50.742;6.432;2023-01-28T11:26:17;144711.00;;;-1.25;100.00
50226;BME280;36113;50.742;6.432;2023-01-28T11:28:43;144754.41;;;-1.07;100.00
50226;BME280;36113;50.742;6.432;2023-01-28T11:31:12;144776.72;;;-0.98;100.00
50226;BME280;36113;50.742;6.432;2023-01-28T11:33:43;144770.53;;;-1.01;100.00
50226;BME280;36113;50.742;6.432;2023-01-28T11:36:13;144760.63;;;-1.05;100.00
50226;BME280;36113;50.742;6.432;2023-01-28T11:38:55;144734.53;;;-1.16;100.00
50226;BME280;36113;50.742;6.432;2023-01-28T11:43:55;144751.91;;;-1.08;100.00
50226;BME280;36113;50.742;6.432;2023-01-28T11:46:46;144775.50;;;-0.99;100.00
50226;BME280;36113;50.742;6.432;2023-01-28T11:55:57;144766.81;;;-1.02;100.00
50226;BME280;36113;50.742;6.432;2023-01-28T12:03:46;144929.44;;;-0.35;100.00
50226;BME280;36113;50.742;6.432;2023-01-28T12:06:38;144929.44;;;-0.35;100.00
50226;BME280;36113;50.742;6.432;2023-01-28T12:09:21;144851.22;;;-0.67;100.00
50226;BME280;36113;50.742;6.432;2023-01-28T12:12:13;144792.88;;;-0.91;100.00
50226;BME280;36113;50.742;6.432;2023-01-28T12:17:52;144763.09;;;-1.04;100.00
50226;BME280;36113;50.742;6.432;2023-01-28T12:20:34;144711.00;;;-1.25;100.00
50226;BME280;36113;50.742;6.432;2023-01-28T12:23:29;144661.34;;;-1.46;100.00
50226;BME280;36113;50.742;6.432;2023-01-28T12:26:07;144653.91;;;-1.49;100.00
50226;BME280;36113;50.742;6.432;2023-01-28T12:29:06;144677.50;;;-1.39;100.00
50226;BME280;36113;50.742;6.432;2023-01-28T12:32:02;144660.09;;;-1.46;100.00
50226;BME280;36113;50.742;6.432;2023-01-28T12:34:41;144678.72;;;-1.39;100.00
50226;BME280;36113;50.742;6.432;2023-01-28T12:43:25;144801.56;;;-0.88;100.00
50226;BME280;36113;50.742;6.432;2023-01-28T12:48:36;144735.81;;;-1.15;100.00
50226;BME280;36113;50.742;6.432;2023-01-28T12:51:13;144734.53;;;-1.16;100.00
50226;BME280;36113;50.742;6.432;2023-01-28T12:56:21;144702.25;;;-1.29;100.00
50226;BME280;36113;50.742;6.432;2023-01-28T12:59:04;144670.03;;;-1.42;100.00
50226;BME280;36113;50.742;6.432;2023-01-28T13:01:48;144624.13;;;-1.61;100.00
50226;BME280;36113;50.742;6.432;2023-01-28T13:04:33;144604.28;;;-1.70;100.00
50226;BME280;36113;50.742;6.432;2023-01-28T13:07:27;144650.19;;;-1.51;100.00
50226;BME280;36113;50.742;6.432;2023-01-28T13:10:05;144688.63;;;-1.35;100.00
50226;BME280;36113;50.742;6.432;2023-01-28T13:12:38;144697.31;;;-1.31;100.00
50226;BME280;36113;50.742;6.432;2023-01-28T13:15:09;144677.50;;;-1.39;100.00
50226;BME280;36113;50.742;6.432;2023-01-28T13:17:35;144708.50;;;-1.26;100.00
50226;BME280;36113;50.742;6.432;2023-01-28T13:20:13;144744.50;;;-1.11;100.00
50226;BME280;36113;50.742;6.432;2023-01-28T13:22:38;144732.09;;;-1.17;100.00
50226;BME280;36113;50.742;6.432;2023-01-28T13:25:25;144822.66;;;-0.79;100.00
50226;BME280;36113;50.742;6.432;2023-01-28T13:27:58;144838.78;;;-0.72;100.00
50226;BME280;36113;50.742;6.432;2023-01-28T13:30:29;144833.84;;;-0.74;100.00
50226;BME280;36113;50.742;6.432;2023-01-28T13:33:01;144763.09;;;-1.04;100.00
50226;BME280;36113;50.742;6.432;2023-01-28T13:35:36;144734.53;;;-1.16;100.00
50226;BME280;36113;50.742;6.432;2023-01-28T13:38:07;144745.72;;;-1.11;100.00
50226;BME280;36113;50.742;6.432;2023-01-28T13:40:33;144806.56;;;-0.86;100.00
50226;BME280;36113;50.742;6.432;2023-01-28T13:43:05;144872.31;;;-0.59;100.00
50226;BME280;36113;50.742;6.432;2023-01-28T13:45:55;144898.41;;;-0.48;100.00
50226;BME280;36113;50.742;6.432;2023-01-28T13:51:27;144959.25;;;-0.23;100.00
50226;BME280;36113;50.742;6.432;2023-01-28T13:53:59;144943.09;;;-0.29;100.00
50226;BME280;36113;50.742;6.432;2023-01-28T13:56:30;144976.66;;;-0.15;100.00
50226;BME280;36113;50.742;6.432;2023-01-28T13:59:18;144933.16;;;-0.33;100.00
50226;BME280;36113;50.742;6.432;2023-01-28T14:07:09;144859.91;;;-0.64;100.00
50226;BME280;36113;50.742;6.432;2023-01-28T14:15:24;144831.38;;;-0.76;100.00